createdAt,value
2023-03-31T00:00:52.403Z,1.67
2023-03-31T00:03:26.030Z,1.70
2023-03-31T00:06:00.872Z,1.38
2023-03-31T00:08:30.776Z,1.23
2023-03-31T00:11:01.288Z,1.27
2023-03-31T00:13:29.714Z,1.30
2023-03-31T00:16:09.821Z,1.17
2023-03-31T00:18:37.646Z,1.73
2023-03-31T00:21:24.286Z,1.45
2023-03-31T00:23:56.302Z,1.42
2023-03-31T00:26:23.805Z,1.10
2023-03-31T00:28:50.890Z,1.30
2023-03-31T00:31:18.262Z,1.30
2023-03-31T00:33:45.303Z,2.95
2023-03-31T00:36:13.088Z,1.58
2023-03-31T00:38:39.853Z,1.42
2023-03-31T00:41:07.145Z,2.33
2023-03-31T00:43:37.075Z,1.33
2023-03-31T00:46:18.648Z,1.55
2023-03-31T00:48:57.499Z,1.30
2023-03-31T00:51:31.049Z,1.40
2023-03-31T00:54:04.969Z,1.23
2023-03-31T00:56:41.743Z,1.10
2023-03-31T00:59:12.241Z,1.30
2023-03-31T01:01:45.515Z,1.98
2023-03-31T01:04:13.995Z,2.20
2023-03-31T01:06:57.344Z,1.65
2023-03-31T01:09:25.132Z,1.30
2023-03-31T01:11:52.237Z,1.30
2023-03-31T01:14:18.993Z,1.58
2023-03-31T01:16:46.140Z,1.67
2023-03-31T01:19:54.853Z,1.13
2023-03-31T01:22:59.514Z,1.60
2023-03-31T01:26:04.498Z,0.93
2023-03-31T01:29:17.119Z,2.00
2023-03-31T01:32:17.481Z,1.20
2023-03-31T01:35:21.119Z,1.92
2023-03-31T01:38:21.980Z,1.92
2023-03-31T01:41:18.505Z,2.67
2023-03-31T01:46:41.182Z,2.35
2023-03-31T01:49:25.429Z,1.48
2023-03-31T01:52:04.271Z,2.13
2023-03-31T01:54:50.680Z,2.17
2023-03-31T01:57:32.611Z,1.33
2023-03-31T02:00:13.792Z,1.55
2023-03-31T02:02:58.073Z,2.42
2023-03-31T02:05:31.659Z,2.00
2023-03-31T02:08:07.050Z,1.75
2023-03-31T02:10:35.596Z,1.60
2023-03-31T02:13:04.037Z,1.77
2023-03-31T02:15:38.128Z,2.38
2023-03-31T02:18:11.136Z,2.33
2023-03-31T02:20:43.829Z,2.00
2023-03-31T02:23:13.970Z,2.28
2023-03-31T02:26:03.491Z,1.63
2023-03-31T02:28:31.253Z,2.08
2023-03-31T02:31:17.678Z,2.03
2023-03-31T02:33:44.539Z,2.13
2023-03-31T02:36:11.567Z,2.70
2023-03-31T02:38:44.969Z,2.15
2023-03-31T02:41:11.999Z,2.13
2023-03-31T02:43:38.797Z,2.45
2023-03-31T02:46:05.893Z,2.50
2023-03-31T02:48:41.812Z,2.35
2023-03-31T02:54:07.405Z,2.63
2023-03-31T02:57:10.433Z,2.40
2023-03-31T02:59:49.128Z,2.30
2023-03-31T03:02:55.407Z,2.00
2023-03-31T03:06:04.680Z,3.13
2023-03-31T03:09:17.075Z,2.60
2023-03-31T03:12:17.099Z,2.80
2023-03-31T03:15:03.325Z,2.15
2023-03-31T03:17:32.472Z,1.95
2023-03-31T03:20:02.424Z,2.38
2023-03-31T03:22:29.067Z,2.13
2023-03-31T03:24:55.908Z,3.03
2023-03-31T03:27:22.826Z,2.58
2023-03-31T03:29:49.557Z,2.58
2023-03-31T03:32:16.372Z,1.77
2023-03-31T03:34:43.224Z,2.22
2023-03-31T03:37:09.946Z,2.13
2023-03-31T03:39:36.671Z,2.08
2023-03-31T03:42:06.302Z,3.33
2023-03-31T03:44:32.983Z,1.98
2023-03-31T03:46:59.695Z,1.98
2023-03-31T03:49:26.407Z,2.80
2023-03-31T03:51:53.235Z,3.53
2023-03-31T03:54:19.976Z,1.67
2023-03-31T03:56:46.771Z,3.30
2023-03-31T03:59:14.115Z,2.38
2023-03-31T04:01:40.922Z,2.30
2023-03-31T04:04:07.852Z,1.45
2023-03-31T04:06:35.186Z,2.08
2023-03-31T04:09:01.979Z,2.00
2023-03-31T04:11:28.917Z,2.33
2023-03-31T04:13:55.823Z,2.63
2023-03-31T04:16:25.609Z,3.72
2023-03-31T04:18:56.704Z,2.97
2023-03-31T04:21:23.858Z,2.45
2023-03-31T04:23:58.886Z,2.95
2023-03-31T04:26:31.441Z,2.33
2023-03-31T04:29:01.198Z,2.08
2023-03-31T04:31:30.921Z,1.60
2023-03-31T04:34:02.380Z,1.80
2023-03-31T04:36:31.535Z,1.38
2023-03-31T04:38:58.302Z,2.13
2023-03-31T04:41:27.587Z,1.58
2023-03-31T04:43:54.623Z,2.45
2023-03-31T04:46:22.380Z,3.50
2023-03-31T04:48:49.229Z,2.45
2023-03-31T04:51:16.373Z,3.90
2023-03-31T04:53:43.102Z,3.75
2023-03-31T04:56:10.011Z,2.55
2023-03-31T04:58:36.943Z,2.38
2023-03-31T05:01:06.395Z,1.80
2023-03-31T05:03:34.168Z,1.60
2023-03-31T05:06:01.272Z,2.15
2023-03-31T05:08:28.076Z,1.83
2023-03-31T05:10:54.795Z,1.35
2023-03-31T05:13:22.716Z,1.25
2023-03-31T05:15:51.634Z,1.63
2023-03-31T05:18:18.848Z,1.23
2023-03-31T05:20:45.698Z,2.05
2023-03-31T05:23:13.098Z,2.33
2023-03-31T05:25:39.850Z,2.53
2023-03-31T05:28:06.586Z,1.88
2023-03-31T05:30:33.329Z,1.50
2023-03-31T05:33:00.145Z,2.00
2023-03-31T05:35:27.111Z,1.95
2023-03-31T05:37:53.898Z,1.00
2023-03-31T05:40:20.583Z,2.10
2023-03-31T05:42:47.296Z,1.48
2023-03-31T05:45:14.021Z,1.20
2023-03-31T05:47:40.937Z,1.90
2023-03-31T05:50:09.197Z,1.25
2023-03-31T05:52:36.627Z,1.65
2023-03-31T05:55:04.965Z,1.73
2023-03-31T05:57:31.970Z,1.40
2023-03-31T05:59:58.934Z,1.08
2023-03-31T06:02:25.930Z,1.02
2023-03-31T06:04:52.882Z,1.25
2023-03-31T06:07:19.784Z,1.27
2023-03-31T06:09:46.906Z,1.27
2023-03-31T06:12:13.948Z,2.03
2023-03-31T06:14:40.728Z,1.42
2023-03-31T06:17:07.730Z,1.67
2023-03-31T06:19:34.860Z,1.25
2023-03-31T06:22:02.098Z,1.45
2023-03-31T06:24:28.845Z,1.05
2023-03-31T06:26:55.612Z,1.38
2023-03-31T06:29:22.384Z,1.73
2023-03-31T06:31:49.160Z,1.55
2023-03-31T06:34:16.327Z,1.95
2023-03-31T06:36:44.035Z,1.73
2023-03-31T06:39:10.857Z,1.30
2023-03-31T06:41:38.902Z,1.42
2023-03-31T06:44:05.724Z,1.50
2023-03-31T06:46:32.583Z,1.38
2023-03-31T06:48:59.437Z,0.82
2023-03-31T06:51:26.165Z,1.50
2023-03-31T06:53:52.920Z,1.80
2023-03-31T06:56:19.648Z,1.20
2023-03-31T06:58:46.399Z,2.33
2023-03-31T07:01:13.181Z,1.60
2023-03-31T07:03:39.946Z,1.40
2023-03-31T07:06:06.930Z,1.50
2023-03-31T07:08:33.692Z,1.20
2023-03-31T07:11:01.394Z,1.67
2023-03-31T07:13:28.936Z,1.25
2023-03-31T07:15:56.237Z,1.00
2023-03-31T07:18:26.113Z,1.60
2023-03-31T07:20:53.097Z,1.48
2023-03-31T07:23:20.811Z,0.95
2023-03-31T07:25:47.999Z,1.00
2023-03-31T07:28:15.768Z,1.33
2023-03-31T07:30:42.991Z,1.65
2023-03-31T07:33:10.752Z,1.33
2023-03-31T07:35:39.640Z,1.75
2023-03-31T07:38:08.957Z,1.00
2023-03-31T07:40:36.044Z,1.20
2023-03-31T07:43:03.291Z,1.00
2023-03-31T07:45:30.021Z,0.80
2023-03-31T07:47:56.768Z,1.00
2023-03-31T07:50:24.323Z,1.08
2023-03-31T07:52:53.186Z,1.10
2023-03-31T07:55:20.136Z,1.00
2023-03-31T07:57:47.607Z,1.13
2023-03-31T08:00:16.433Z,0.98
2023-03-31T08:02:43.817Z,1.17
2023-03-31T08:05:13.364Z,0.95
2023-03-31T08:07:43.280Z,1.80
2023-03-31T08:10:16.269Z,1.27
2023-03-31T08:12:43.199Z,1.40
2023-03-31T08:15:11.544Z,0.85
2023-03-31T08:17:38.977Z,0.98
2023-03-31T08:20:10.355Z,1.38
2023-03-31T08:22:40.956Z,1.75
2023-03-31T08:25:09.296Z,1.48
2023-03-31T08:27:39.315Z,1.20
2023-03-31T08:30:09.545Z,1.85
2023-03-31T08:32:36.457Z,1.58
2023-03-31T08:35:04.305Z,1.20
2023-03-31T08:37:32.337Z,1.75
2023-03-31T08:39:59.179Z,1.23
2023-03-31T08:42:49.072Z,1.05
2023-03-31T08:45:31.141Z,1.90
2023-03-31T08:48:25.723Z,2.00
2023-03-31T08:51:06.254Z,1.25
2023-03-31T08:53:45.270Z,1.50
2023-03-31T08:56:22.512Z,2.47
2023-03-31T08:58:51.303Z,2.00
2023-03-31T09:01:56.367Z,1.58
2023-03-31T09:04:32.447Z,1.98
2023-03-31T09:10:09.348Z,1.58
2023-03-31T09:13:21.174Z,1.85
2023-03-31T09:16:34.101Z,2.45
2023-03-31T09:19:02.173Z,1.77
2023-03-31T09:21:52.789Z,3.13
2023-03-31T09:24:33.971Z,2.65
2023-03-31T09:27:08.200Z,2.30
2023-03-31T09:29:52.295Z,2.38
2023-03-31T09:32:24.680Z,1.88
2023-03-31T09:34:57.504Z,1.55
2023-03-31T09:37:28.146Z,1.83
2023-03-31T09:39:54.948Z,1.70
2023-03-31T09:42:21.692Z,1.83
2023-03-31T09:44:50.098Z,1.90
2023-03-31T09:47:31.876Z,2.17
2023-03-31T09:49:58.594Z,1.90
2023-03-31T09:52:37.140Z,1.92
2023-03-31T09:55:39.907Z,2.30
2023-03-31T09:58:12.161Z,2.00
2023-03-31T10:00:42.253Z,1.95
2023-03-31T10:03:14.003Z,1.73
2023-03-31T10:05:56.639Z,2.75
2023-03-31T10:08:34.121Z,1.27
2023-03-31T10:11:04.096Z,2.33
2023-03-31T10:13:46.075Z,1.60
2023-03-31T10:16:27.817Z,2.88
2023-03-31T10:18:54.878Z,2.25
2023-03-31T10:21:28.426Z,2.28
2023-03-31T10:23:56.243Z,1.90
2023-03-31T10:26:28.412Z,1.65
2023-03-31T10:28:55.814Z,2.55
2023-03-31T10:31:27.462Z,1.75
2023-03-31T10:33:56.094Z,2.13
2023-03-31T10:36:29.084Z,1.90
2023-03-31T10:38:56.850Z,2.42
2023-03-31T10:41:29.905Z,2.15
2023-03-31T10:43:59.164Z,1.55
2023-03-31T10:46:49.919Z,1.98
2023-03-31T10:49:27.944Z,2.10
2023-03-31T10:52:00.992Z,0.47
2023-03-31T10:54:27.842Z,0.73
2023-03-31T10:57:06.208Z,0.50
2023-03-31T11:00:13.566Z,0.30
2023-03-31T11:03:00.270Z,0.25
2023-03-31T11:05:46.352Z,0.00
2023-03-31T11:08:40.648Z,0.00
2023-03-31T11:11:19.254Z,0.00
2023-03-31T11:14:05.014Z,0.65
2023-03-31T11:16:51.848Z,0.00
2023-03-31T11:20:07.419Z,0.00
2023-03-31T11:22:54.550Z,0.00
2023-03-31T11:25:35.124Z,0.00
2023-03-31T11:28:41.558Z,0.00
2023-03-31T11:31:52.846Z,0.00
2023-03-31T11:35:00.717Z,0.00
2023-03-31T11:37:42.813Z,0.00
2023-03-31T11:40:25.459Z,0.00
2023-03-31T11:43:11.165Z,0.00
2023-03-31T11:45:44.462Z,0.00
2023-03-31T11:48:32.940Z,0.00
2023-03-31T11:51:04.763Z,0.00
2023-03-31T11:53:37.321Z,0.00
2023-03-31T11:56:07.448Z,0.00
2023-03-31T11:58:59.553Z,0.00
2023-03-31T12:01:42.871Z,0.00
2023-03-31T12:04:24.665Z,0.00
2023-03-31T12:06:55.070Z,0.00
2023-03-31T12:09:43.284Z,0.00
2023-03-31T12:12:20.837Z,0.00
2023-03-31T12:15:10.896Z,0.00
2023-03-31T12:17:41.536Z,0.00
2023-03-31T12:20:39.879Z,0.00
2023-03-31T12:23:16.414Z,0.20
2023-03-31T12:26:40.777Z,0.00
2023-03-31T12:29:30.979Z,0.00
2023-03-31T12:32:04.545Z,0.15
2023-03-31T12:34:33.035Z,0.20
2023-03-31T12:37:27.950Z,0.93
2023-03-31T12:40:34.344Z,1.90
2023-03-31T12:43:04.331Z,2.13
2023-03-31T12:45:39.379Z,1.33
2023-03-31T12:48:36.553Z,1.38
2023-03-31T12:51:30.750Z,1.20
2023-03-31T12:54:51.628Z,1.30
2023-03-31T12:57:24.231Z,1.42
2023-03-31T13:00:11.704Z,1.83
2023-03-31T13:02:40.126Z,1.58
2023-03-31T13:05:40.610Z,2.53
2023-03-31T13:08:10.624Z,1.52
2023-03-31T13:10:59.568Z,1.25
2023-03-31T13:13:26.716Z,1.10
2023-03-31T13:15:59.758Z,1.77
2023-03-31T13:18:27.181Z,2.28
2023-03-31T13:21:05.666Z,0.60
2023-03-31T13:23:37.040Z,1.00
2023-03-31T13:26:04.755Z,1.30
2023-03-31T13:28:42.628Z,0.90
2023-03-31T13:31:15.845Z,1.27
2023-03-31T13:33:58.388Z,1.13
2023-03-31T13:36:34.007Z,0.90
2023-03-31T13:42:37.332Z,0.80
2023-03-31T13:45:37.222Z,1.05
2023-03-31T13:48:18.932Z,1.40
2023-03-31T13:51:21.148Z,1.15
2023-03-31T13:54:26.818Z,0.80
2023-03-31T13:57:38.299Z,1.30
2023-03-31T14:00:43.245Z,0.90
2023-03-31T14:03:44.254Z,1.20
2023-03-31T14:06:34.014Z,0.70
2023-03-31T14:09:10.366Z,1.05
2023-03-31T14:11:37.019Z,0.95
2023-03-31T14:14:17.866Z,0.52
2023-03-31T14:17:03.144Z,0.82
2023-03-31T14:19:44.891Z,1.10
2023-03-31T14:22:32.266Z,0.95
2023-03-31T14:25:02.282Z,1.08
2023-03-31T14:27:44.161Z,0.65
2023-03-31T14:30:18.706Z,1.15
2023-03-31T14:32:57.860Z,1.00
2023-03-31T14:35:42.980Z,0.50
2023-03-31T14:38:23.336Z,1.03
2023-03-31T14:41:01.073Z,0.95
2023-03-31T14:43:33.476Z,0.95
2023-03-31T14:46:05.558Z,1.27
2023-03-31T14:48:45.368Z,1.27
2023-03-31T14:51:16.013Z,2.72
2023-03-31T14:53:45.903Z,1.50
2023-03-31T14:56:16.883Z,1.55
2023-03-31T14:58:49.085Z,1.40
2023-03-31T15:01:23.792Z,1.83
2023-03-31T15:03:52.746Z,1.10
2023-03-31T15:06:21.678Z,2.53
2023-03-31T15:08:48.764Z,1.20
2023-03-31T15:11:19.507Z,0.70
2023-03-31T15:14:04.355Z,0.00
2023-03-31T15:16:43.712Z,0.10
2023-03-31T15:19:21.533Z,0.00
2023-03-31T15:21:57.939Z,0.32
2023-03-31T15:24:24.691Z,0.00
2023-03-31T15:27:04.929Z,0.00
2023-03-31T15:29:43.038Z,0.00
2023-03-31T15:32:26.089Z,0.00
2023-03-31T15:34:54.604Z,0.00
2023-03-31T15:37:28.504Z,0.00
2023-03-31T15:40:01.522Z,0.00
2023-03-31T15:42:28.877Z,0.00
2023-03-31T15:45:38.853Z,0.00
2023-03-31T15:48:06.945Z,0.00
2023-03-31T15:50:34.625Z,0.00
2023-03-31T15:53:03.582Z,0.00
2023-03-31T15:58:16.819Z,0.00
2023-03-31T16:00:52.511Z,0.00
2023-03-31T16:05:58.929Z,0.00
2023-03-31T16:09:03.811Z,0.00
2023-03-31T16:11:41.055Z,0.10
2023-03-31T16:14:20.166Z,0.00
2023-03-31T16:16:57.082Z,0.00
2023-03-31T16:19:28.368Z,0.00
2023-03-31T16:21:59.578Z,0.00
2023-03-31T16:24:36.020Z,0.00
2023-03-31T16:27:06.836Z,0.00
2023-03-31T16:29:35.502Z,0.00
2023-03-31T16:32:18.309Z,0.00
2023-03-31T16:35:05.226Z,0.52
2023-03-31T16:37:32.002Z,0.00
2023-03-31T16:39:58.662Z,0.00
2023-03-31T16:42:26.076Z,0.00
2023-03-31T16:45:09.742Z,0.00
2023-03-31T16:50:07.703Z,0.00
2023-03-31T16:52:35.883Z,0.00
2023-03-31T16:55:02.689Z,0.00
2023-03-31T16:57:29.363Z,0.00
2023-03-31T16:59:58.383Z,0.00
2023-03-31T17:02:26.183Z,0.00
2023-03-31T17:04:56.598Z,0.00
2023-03-31T17:07:27.016Z,0.00
2023-03-31T17:09:53.739Z,0.00
2023-03-31T17:12:20.852Z,0.00
2023-03-31T17:14:47.581Z,0.00
2023-03-31T17:17:16.611Z,0.00
2023-03-31T17:19:44.511Z,0.00
2023-03-31T17:22:11.352Z,0.00
2023-03-31T17:24:38.234Z,0.00
2023-03-31T17:27:05.191Z,0.00
2023-03-31T17:29:32.319Z,0.00
2023-03-31T17:31:59.034Z,0.00
2023-03-31T17:34:25.754Z,0.00
2023-03-31T17:36:54.752Z,0.00
2023-03-31T17:39:21.591Z,0.00
2023-03-31T17:41:48.328Z,0.00
2023-03-31T17:44:15.085Z,0.00
2023-03-31T17:46:42.213Z,0.00
2023-03-31T17:49:08.916Z,0.00
2023-03-31T17:51:36.345Z,0.00
2023-03-31T17:54:03.905Z,0.00
2023-03-31T17:56:31.005Z,0.00
2023-03-31T17:58:57.691Z,0.00
2023-03-31T18:01:26.312Z,0.00
2023-03-31T18:03:56.146Z,0.00
2023-03-31T18:06:23.255Z,0.00
2023-03-31T18:08:50.298Z,0.00
2023-03-31T18:11:17.228Z,0.00
2023-03-31T18:13:44.716Z,0.13
2023-03-31T18:16:13.007Z,0.00
2023-03-31T18:18:41.484Z,0.00
2023-03-31T18:21:13.290Z,0.00
2023-03-31T18:23:40.875Z,0.00
2023-03-31T18:26:09.922Z,0.00
2023-03-31T18:28:36.836Z,0.00
2023-03-31T18:31:05.797Z,0.00
2023-03-31T18:33:32.555Z,0.10
2023-03-31T18:35:59.434Z,0.10
2023-03-31T18:38:27.188Z,0.10
2023-03-31T18:40:55.298Z,0.10
2023-03-31T18:43:24.436Z,0.43
2023-03-31T18:45:54.066Z,0.57
2023-03-31T18:48:23.177Z,0.32
2023-03-31T18:50:53.669Z,0.50
2023-03-31T18:53:23.077Z,0.50
2023-03-31T18:55:58.931Z,1.02
2023-03-31T19:00:57.531Z,0.73
2023-03-31T19:03:26.500Z,0.52
2023-03-31T19:06:11.802Z,0.60
2023-03-31T19:08:39.164Z,0.55
2023-03-31T19:11:16.890Z,0.80
2023-03-31T19:13:43.978Z,0.77
2023-03-31T19:16:12.309Z,1.00
2023-03-31T19:18:39.688Z,0.73
2023-03-31T19:21:07.135Z,1.02
2023-03-31T19:23:37.243Z,0.60
2023-03-31T19:26:04.023Z,0.57
2023-03-31T19:28:31.708Z,0.93
2023-03-31T19:31:04.841Z,0.90
2023-03-31T19:33:31.749Z,0.93
2023-03-31T19:35:59.003Z,0.70
2023-03-31T19:38:27.116Z,0.95
2023-03-31T19:40:53.946Z,1.35
2023-03-31T19:43:24.122Z,0.85
2023-03-31T19:45:53.519Z,1.20
2023-03-31T19:48:20.815Z,0.77
2023-03-31T19:50:51.828Z,1.30
2023-03-31T19:53:20.213Z,0.80
2023-03-31T19:56:17.447Z,1.25
2023-03-31T19:58:45.090Z,1.02
2023-03-31T20:01:34.124Z,1.23
2023-03-31T20:04:01.289Z,0.68
2023-03-31T20:06:30.787Z,0.70
2023-03-31T20:09:00.405Z,1.05
2023-03-31T20:11:30.779Z,1.52
2023-03-31T20:13:58.489Z,0.88
2023-03-31T20:16:28.338Z,2.13
2023-03-31T20:19:06.387Z,1.23
2023-03-31T20:21:36.732Z,1.20
2023-03-31T20:24:04.378Z,0.95
2023-03-31T20:26:32.645Z,1.23
2023-03-31T20:29:04.577Z,1.20
2023-03-31T20:31:37.455Z,0.80
2023-03-31T20:34:12.024Z,0.93
2023-03-31T20:36:40.478Z,1.05
2023-03-31T20:39:07.904Z,1.20
2023-03-31T20:41:37.316Z,0.80
2023-03-31T20:44:06.004Z,0.70
2023-03-31T20:46:33.090Z,1.00
2023-03-31T20:49:00.738Z,1.50
2023-03-31T20:51:33.318Z,1.05
2023-03-31T20:54:01.741Z,1.35
2023-03-31T20:56:31.843Z,1.15
2023-03-31T20:59:00.275Z,1.10
2023-03-31T21:01:30.922Z,0.85
2023-03-31T21:04:00.804Z,0.98
2023-03-31T21:06:32.419Z,1.48
2023-03-31T21:08:59.316Z,1.40
2023-03-31T21:11:26.523Z,1.67
2023-03-31T21:13:53.387Z,1.23
2023-03-31T21:16:21.302Z,0.80
2023-03-31T21:18:48.445Z,1.25
2023-03-31T21:21:19.317Z,1.00
2023-03-31T21:23:46.889Z,1.20
2023-03-31T21:26:15.792Z,1.20
2023-03-31T21:28:43.618Z,1.30
2023-03-31T21:31:14.475Z,1.00
2023-03-31T21:33:43.362Z,1.40
2023-03-31T21:36:17.716Z,1.38
2023-03-31T21:38:45.577Z,1.23
2023-03-31T21:41:19.119Z,1.15
2023-03-31T21:43:47.096Z,1.13
2023-03-31T21:46:17.847Z,1.30
2023-03-31T21:48:44.885Z,1.77
2023-03-31T21:51:12.015Z,1.38
2023-03-31T21:53:38.930Z,1.00
2023-03-31T21:56:05.830Z,0.90
2023-03-31T21:58:33.006Z,1.88
2023-03-31T22:01:03.940Z,2.72
2023-03-31T22:03:34.495Z,1.33
2023-03-31T22:06:07.222Z,1.20
2023-03-31T22:08:36.621Z,1.40
2023-03-31T22:11:06.182Z,1.10
2023-03-31T22:13:34.044Z,2.45
2023-03-31T22:16:02.131Z,1.30
2023-03-31T22:18:30.945Z,0.75
2023-03-31T22:20:58.288Z,0.93
2023-03-31T22:23:26.064Z,0.80
2023-03-31T22:25:52.801Z,0.80
2023-03-31T22:28:19.530Z,0.90
2023-03-31T22:30:46.361Z,1.10
2023-03-31T22:33:13.173Z,0.93
2023-03-31T22:35:39.929Z,2.13
2023-03-31T22:38:08.511Z,1.05
2023-03-31T22:40:36.292Z,1.10
2023-03-31T22:43:03.831Z,1.00
2023-03-31T22:45:31.156Z,1.05
2023-03-31T22:47:58.111Z,1.08
2023-03-31T22:50:24.883Z,0.68
2023-03-31T22:52:52.025Z,1.88
2023-03-31T22:55:19.192Z,1.08
2023-03-31T22:57:46.649Z,2.15
2023-03-31T23:00:13.868Z,0.70
2023-03-31T23:02:42.154Z,1.63
2023-03-31T23:05:09.874Z,0.88
2023-03-31T23:07:38.507Z,0.88
2023-03-31T23:10:06.390Z,0.90
2023-03-31T23:12:33.065Z,1.70
2023-03-31T23:14:59.719Z,0.75
2023-03-31T23:17:26.448Z,1.02
2023-03-31T23:19:53.311Z,0.63
2023-03-31T23:22:20.062Z,0.98
2023-03-31T23:24:48.810Z,0.80
2023-03-31T23:27:15.468Z,1.00
2023-03-31T23:29:42.164Z,0.60
2023-03-31T23:32:09.308Z,1.15
2023-03-31T23:34:36.109Z,0.85
2023-03-31T23:37:02.731Z,0.82
2023-03-31T23:39:29.460Z,0.68
2023-03-31T23:41:57.176Z,0.75
2023-03-31T23:44:23.811Z,0.55
2023-03-31T23:46:50.501Z,0.70
2023-03-31T23:49:17.160Z,0.50
2023-03-31T23:51:43.903Z,1.05
2023-03-31T23:54:10.726Z,0.50
2023-03-31T23:56:37.439Z,1.15
2023-03-31T23:59:04.317Z,0.55
